createdAt,value
2022-12-01T00:02:06.096Z,37.20
2022-12-01T00:04:32.585Z,34.80
2022-12-01T00:06:58.995Z,36.00
2022-12-01T00:09:44.022Z,34.40
2022-12-01T00:12:10.424Z,31.00
2022-12-01T00:14:36.841Z,36.25
2022-12-01T00:17:04.983Z,34.25
2022-12-01T00:19:31.410Z,30.60
2022-12-01T00:21:59.091Z,31.75
2022-12-01T00:24:25.786Z,33.80
2022-12-01T00:26:52.207Z,36.80
2022-12-01T00:29:18.609Z,33.40
2022-12-01T00:31:45.185Z,36.60
2022-12-01T00:34:22.755Z,34.00
2022-12-01T00:36:49.202Z,31.80
2022-12-01T00:39:15.691Z,35.25
2022-12-01T00:41:42.143Z,34.00
2022-12-01T00:44:08.567Z,37.00
2022-12-01T00:46:35.000Z,34.75
2022-12-01T00:49:01.447Z,32.00
2022-12-01T00:51:27.930Z,31.50
2022-12-01T00:53:54.360Z,30.20
2022-12-01T00:56:21.206Z,32.75
2022-12-01T00:58:47.629Z,28.75
2022-12-01T01:01:14.172Z,30.00
2022-12-01T01:03:40.626Z,32.00
2022-12-01T01:06:08.814Z,32.20
2022-12-01T01:08:35.723Z,34.60
2022-12-01T01:11:02.466Z,32.00
2022-12-01T01:13:29.146Z,30.67
2022-12-01T01:15:59.850Z,28.75
2022-12-01T01:18:26.275Z,27.40
2022-12-01T01:20:59.413Z,29.50
2022-12-01T01:23:26.321Z,24.50
2022-12-01T01:25:52.748Z,24.60
2022-12-01T01:28:19.989Z,26.40
2022-12-01T01:30:46.764Z,24.80
2022-12-01T01:33:13.184Z,25.00
2022-12-01T01:35:39.614Z,19.00
2022-12-01T01:38:06.047Z,20.60
2022-12-01T01:40:32.467Z,24.00
2022-12-01T01:42:58.914Z,19.00
2022-12-01T01:45:28.873Z,20.60
2022-12-01T01:47:57.038Z,23.00
2022-12-01T01:50:26.392Z,17.40
2022-12-01T01:52:57.912Z,21.60
2022-12-01T01:55:24.352Z,24.00
2022-12-01T01:57:50.850Z,23.80
2022-12-01T02:00:19.369Z,22.50
2022-12-01T02:02:46.803Z,19.50
2022-12-01T02:05:17.239Z,21.75
2022-12-01T02:07:43.927Z,19.00
2022-12-01T02:10:13.131Z,21.50
2022-12-01T02:12:48.531Z,18.00
2022-12-01T02:15:41.364Z,18.50
2022-12-01T02:18:16.789Z,16.00
2022-12-01T02:21:00.520Z,21.50
2022-12-01T02:23:45.863Z,14.50
2022-12-01T02:26:31.133Z,22.60
2022-12-01T02:29:09.753Z,20.00
2022-12-01T02:31:36.165Z,15.00
2022-12-01T02:34:09.913Z,19.00
2022-12-01T02:36:48.424Z,19.50
2022-12-01T02:39:21.009Z,18.00
2022-12-01T02:41:59.098Z,17.00
2022-12-01T02:44:29.604Z,20.00
2022-12-01T02:46:59.669Z,14.75
2022-12-01T02:49:28.402Z,15.75
2022-12-01T02:51:55.744Z,16.00
2022-12-01T02:54:22.694Z,14.25
2022-12-01T02:56:51.876Z,17.60
2022-12-01T02:59:18.397Z,14.60
2022-12-01T03:01:56.540Z,12.25
2022-12-01T03:04:38.307Z,15.00
2022-12-01T03:07:07.711Z,16.80
2022-12-01T03:09:34.106Z,12.00
2022-12-01T03:12:03.561Z,14.60
2022-12-01T03:14:29.954Z,14.80
2022-12-01T03:16:59.251Z,16.20
2022-12-01T03:19:36.290Z,16.50
2022-12-01T03:22:10.531Z,13.40
2022-12-01T03:24:38.091Z,11.00
2022-12-01T03:27:06.048Z,19.25
2022-12-01T03:29:52.786Z,15.00
2022-12-01T03:32:26.450Z,16.40
2022-12-01T03:35:11.479Z,15.40
2022-12-01T03:37:41.215Z,16.50
2022-12-01T03:40:09.352Z,24.60
2022-12-01T03:42:38.624Z,25.25
2022-12-01T03:45:07.370Z,18.40
2022-12-01T03:47:37.225Z,23.60
2022-12-01T03:50:05.376Z,23.00
2022-12-01T03:52:34.969Z,22.00
2022-12-01T03:55:10.629Z,19.33
2022-12-01T03:57:39.806Z,16.00
2022-12-01T04:00:06.983Z,16.50
2022-12-01T04:02:33.826Z,16.00
2022-12-01T04:05:00.280Z,11.20
2022-12-01T04:07:26.721Z,12.75
2022-12-01T04:09:53.189Z,13.67
2022-12-01T04:12:33.171Z,14.00
2022-12-01T04:15:00.784Z,13.60
2022-12-01T04:17:27.870Z,18.40
2022-12-01T04:19:54.348Z,15.80
2022-12-01T04:22:20.917Z,12.50
2022-12-01T04:24:47.393Z,14.40
2022-12-01T04:27:13.975Z,17.00
2022-12-01T04:29:40.453Z,14.60
2022-12-01T04:32:07.256Z,20.00
2022-12-01T04:34:33.675Z,15.20
2022-12-01T04:37:00.192Z,23.00
2022-12-01T04:39:26.623Z,14.00
2022-12-01T04:41:53.029Z,17.40
2022-12-01T04:44:19.525Z,17.80
2022-12-01T04:46:46.029Z,17.00
2022-12-01T04:49:12.596Z,20.25
2022-12-01T04:51:39.035Z,15.00
2022-12-01T04:54:06.029Z,14.00
2022-12-01T04:56:33.595Z,13.00
2022-12-01T04:59:00.425Z,11.00
2022-12-01T05:01:27.046Z,12.25
2022-12-01T05:03:53.793Z,14.00
2022-12-01T05:06:22.545Z,12.75
2022-12-01T05:08:49.538Z,21.00
2022-12-01T05:11:16.993Z,16.00
2022-12-01T05:13:45.160Z,22.00
2022-12-01T05:16:16.213Z,21.00
2022-12-01T05:18:42.824Z,17.50
2022-12-01T05:21:10.426Z,21.60
2022-12-01T05:23:37.786Z,33.00
2022-12-01T05:26:05.436Z,36.00
2022-12-01T05:28:31.951Z,44.00
2022-12-01T05:30:58.479Z,26.00
2022-12-01T05:33:25.684Z,16.00
2022-12-01T05:35:52.139Z,14.00
2022-12-01T05:38:18.755Z,16.00
2022-12-01T05:40:52.499Z,14.00
2022-12-01T05:43:23.879Z,14.75
2022-12-01T05:45:55.371Z,15.00
2022-12-01T05:48:21.896Z,20.60
2022-12-01T05:50:48.365Z,20.00
2022-12-01T05:53:15.361Z,17.50
2022-12-01T05:55:41.970Z,14.25
2022-12-01T05:58:08.454Z,14.80
2022-12-01T06:00:36.813Z,14.25
2022-12-01T06:03:05.478Z,17.00
2022-12-01T06:05:31.893Z,17.00
2022-12-01T06:07:58.385Z,16.20
2022-12-01T06:10:24.870Z,15.60
2022-12-01T06:12:51.396Z,21.25
2022-12-01T06:15:17.876Z,25.20
2022-12-01T06:17:44.278Z,20.60
2022-12-01T06:20:11.147Z,22.25
2022-12-01T06:22:37.588Z,22.00
2022-12-01T06:25:04.145Z,19.00
2022-12-01T06:27:30.650Z,21.75
2022-12-01T06:29:57.081Z,17.80
2022-12-01T06:32:23.528Z,16.00
2022-12-01T06:34:49.917Z,16.00
2022-12-01T06:37:16.815Z,19.50
2022-12-01T06:39:43.645Z,17.00
2022-12-01T06:42:10.463Z,20.20
2022-12-01T06:44:36.930Z,19.40
2022-12-01T06:47:03.479Z,16.50
2022-12-01T06:49:30.017Z,15.50
2022-12-01T06:51:56.462Z,15.00
2022-12-01T06:54:22.902Z,16.00
2022-12-01T06:56:49.606Z,14.80
2022-12-01T06:59:16.352Z,15.00
2022-12-01T07:01:43.331Z,13.75
2022-12-01T07:04:09.826Z,17.00
2022-12-01T07:06:36.278Z,19.25
2022-12-01T07:09:02.746Z,15.80
2022-12-01T07:11:32.165Z,19.20
2022-12-01T07:13:58.623Z,17.80
2022-12-01T07:16:25.105Z,17.00
2022-12-01T07:18:52.646Z,17.33
2022-12-01T07:21:19.157Z,21.25
2022-12-01T07:23:45.652Z,16.75
2022-12-01T07:26:13.691Z,18.20
2022-12-01T07:28:40.124Z,16.80
2022-12-01T07:31:08.085Z,18.80
2022-12-01T07:33:34.970Z,22.50
2022-12-01T07:36:01.420Z,18.00
2022-12-01T07:38:28.940Z,15.00
2022-12-01T07:40:55.369Z,16.75
2022-12-01T07:43:22.330Z,19.50
2022-12-01T07:45:49.767Z,19.00
2022-12-01T07:48:16.258Z,21.00
2022-12-01T07:50:42.667Z,18.33
2022-12-01T07:53:09.090Z,15.60
2022-12-01T07:55:35.505Z,15.50
2022-12-01T07:58:01.990Z,17.25
2022-12-01T08:00:28.606Z,22.00
2022-12-01T08:02:55.056Z,20.50
2022-12-01T08:05:21.509Z,18.00
2022-12-01T08:07:47.996Z,16.00
2022-12-01T08:10:14.518Z,24.75
2022-12-01T08:12:40.933Z,27.50
2022-12-01T08:15:07.518Z,19.00
2022-12-01T08:17:33.963Z,26.20
2022-12-01T08:20:00.356Z,30.00
2022-12-01T08:22:26.774Z,41.00
2022-12-01T08:24:53.194Z,42.25
2022-12-01T08:27:19.683Z,36.00
2022-12-01T08:29:46.142Z,31.00
2022-12-01T08:32:12.558Z,36.00
2022-12-01T08:34:39.116Z,23.00
2022-12-01T08:37:05.586Z,23.60
2022-12-01T08:39:32.086Z,23.00
2022-12-01T08:41:58.568Z,25.00
2022-12-01T08:44:25.052Z,20.80
2022-12-01T08:46:51.589Z,31.00
2022-12-01T08:49:18.039Z,30.60
2022-12-01T08:51:44.434Z,32.50
2022-12-01T08:54:11.806Z,29.50
2022-12-01T08:56:40.132Z,21.00
2022-12-01T08:59:06.631Z,16.00
2022-12-01T09:01:33.482Z,18.00
2022-12-01T09:04:08.200Z,23.00
2022-12-01T09:06:37.801Z,21.00
2022-12-01T09:09:04.446Z,17.00
2022-12-01T09:11:30.839Z,20.00
2022-12-01T09:13:58.750Z,16.80
2022-12-01T09:16:25.243Z,24.50
2022-12-01T09:18:51.706Z,15.50
2022-12-01T09:21:18.104Z,24.40
2022-12-01T09:23:45.028Z,21.67
2022-12-01T09:26:13.752Z,20.00
2022-12-01T09:28:40.680Z,18.80
2022-12-01T09:31:08.424Z,23.00
2022-12-01T09:33:35.184Z,18.00
2022-12-01T09:36:02.098Z,20.75
2022-12-01T09:38:29.252Z,17.00
2022-12-01T09:40:56.772Z,23.75
2022-12-01T09:43:28.703Z,17.50
2022-12-01T09:45:58.999Z,21.00
2022-12-01T09:48:33.530Z,21.60
2022-12-01T09:51:00.219Z,18.00
2022-12-01T09:53:31.299Z,20.00
2022-12-01T09:56:04.164Z,20.00
2022-12-01T09:58:34.749Z,22.50
2022-12-01T10:01:01.251Z,19.40
2022-12-01T10:03:33.985Z,19.00
2022-12-01T10:09:07.295Z,19.80
2022-12-01T10:11:39.633Z,22.00
2022-12-01T10:14:09.270Z,22.60
2022-12-01T10:16:39.912Z,25.25
2022-12-01T10:19:29.073Z,19.40
2022-12-01T10:21:58.235Z,20.00
2022-12-01T10:24:31.207Z,23.40
2022-12-01T10:27:16.414Z,21.00
2022-12-01T10:29:47.351Z,21.00
2022-12-01T10:32:18.669Z,21.50
2022-12-01T10:34:47.486Z,26.40
2022-12-01T10:37:24.477Z,28.25
2022-12-01T10:39:52.571Z,25.50
2022-12-01T10:42:37.816Z,29.50
2022-12-01T10:45:06.081Z,34.00
2022-12-01T10:47:32.763Z,29.00
2022-12-01T10:49:59.311Z,24.60
2022-12-01T10:52:31.504Z,26.00
2022-12-01T10:54:57.966Z,28.20
2022-12-01T10:57:26.037Z,26.50
2022-12-01T10:59:53.048Z,38.75
2022-12-01T11:02:21.435Z,32.40
2022-12-01T11:04:55.760Z,34.00
2022-12-01T11:07:24.066Z,29.50
2022-12-01T11:10:02.857Z,52.80
2022-12-01T11:12:29.313Z,50.60
2022-12-01T11:14:57.422Z,36.40
2022-12-01T11:17:38.834Z,44.00
2022-12-01T11:20:24.580Z,45.50
2022-12-01T11:22:51.034Z,47.00
2022-12-01T11:25:21.718Z,53.00
2022-12-01T11:27:52.940Z,43.75
2022-12-01T11:30:27.163Z,41.00
2022-12-01T11:32:55.704Z,42.40
2022-12-01T11:35:24.200Z,76.60
2022-12-01T11:38:27.780Z,56.25
2022-12-01T11:40:52.967Z,53.00
2022-12-01T11:43:28.505Z,41.33
2022-12-01T11:45:56.263Z,45.20
2022-12-01T11:48:30.045Z,45.00
2022-12-01T11:51:02.520Z,39.60
2022-12-01T11:53:30.877Z,47.00
2022-12-01T11:56:14.924Z,48.80
2022-12-01T11:58:42.262Z,69.25
2022-12-01T12:01:23.659Z,58.00
2022-12-01T12:04:14.311Z,51.00
2022-12-01T12:06:52.858Z,79.20
2022-12-01T12:09:27.147Z,67.75
2022-12-01T12:12:02.690Z,44.40
2022-12-01T12:14:38.406Z,44.50
2022-12-01T12:17:20.346Z,42.00
2022-12-01T12:20:07.701Z,36.60
2022-12-01T12:22:34.823Z,31.00
2022-12-01T12:25:30.726Z,26.00
2022-12-01T12:28:17.489Z,41.75
2022-12-01T12:30:52.529Z,36.00
2022-12-01T12:33:31.576Z,38.50
2022-12-01T12:36:16.809Z,35.00
2022-12-01T12:38:52.478Z,38.00
2022-12-01T12:41:25.549Z,43.00
2022-12-01T12:43:57.882Z,47.00
2022-12-01T12:46:44.669Z,40.00
2022-12-01T12:49:20.263Z,39.20
2022-12-01T12:51:56.510Z,60.50
2022-12-01T12:54:30.060Z,43.00
2022-12-01T12:57:02.356Z,46.00
2022-12-01T12:59:38.520Z,44.25
2022-12-01T13:02:15.649Z,46.80
2022-12-01T13:04:54.262Z,48.00
2022-12-01T13:07:20.676Z,39.00
2022-12-01T13:09:51.127Z,42.00
2022-12-01T13:12:23.180Z,37.00
2022-12-01T13:14:55.179Z,49.00
2022-12-01T13:17:35.749Z,43.00
2022-12-01T13:20:02.199Z,46.00
2022-12-01T13:22:30.776Z,42.75
2022-12-01T13:24:57.298Z,45.75
2022-12-01T13:27:25.890Z,34.50
2022-12-01T13:29:54.230Z,49.50
2022-12-01T13:32:29.919Z,37.50
2022-12-01T13:34:56.736Z,38.00
2022-12-01T13:37:31.091Z,37.80
2022-12-01T13:40:07.747Z,44.00
2022-12-01T13:42:35.202Z,38.00
2022-12-01T13:45:07.678Z,29.40
2022-12-01T13:47:39.663Z,35.80
2022-12-01T13:50:24.927Z,41.00
2022-12-01T13:53:06.606Z,44.00
2022-12-01T13:55:33.296Z,37.25
2022-12-01T13:57:59.745Z,40.00
2022-12-01T14:00:27.859Z,39.25
2022-12-01T14:03:12.922Z,38.00
2022-12-01T14:05:39.494Z,34.00
2022-12-01T14:08:23.423Z,41.25
2022-12-01T14:10:54.719Z,49.00
2022-12-01T14:13:22.436Z,43.75
2022-12-01T14:15:59.673Z,68.80
2022-12-01T14:18:34.213Z,33.25
2022-12-01T14:21:01.891Z,48.60
2022-12-01T14:23:30.612Z,44.75
2022-12-01T14:26:11.962Z,47.60
2022-12-01T14:28:57.026Z,43.75
2022-12-01T14:31:24.619Z,50.25
2022-12-01T14:33:58.931Z,48.00
2022-12-01T14:36:36.768Z,50.00
2022-12-01T14:39:09.238Z,61.60
2022-12-01T14:41:41.874Z,53.00
2022-12-01T14:44:19.567Z,42.00
2022-12-01T14:46:49.868Z,46.50
2022-12-01T14:49:28.201Z,52.00
2022-12-01T14:51:58.849Z,68.50
2022-12-01T14:54:29.006Z,61.50
2022-12-01T14:57:01.347Z,43.40
2022-12-01T14:59:33.032Z,47.20
2022-12-01T15:02:08.901Z,50.20
2022-12-01T15:04:55.395Z,39.25
2022-12-01T15:07:22.905Z,43.00
2022-12-01T15:09:59.316Z,41.00
2022-12-01T15:12:27.797Z,42.80
2022-12-01T15:14:54.323Z,44.20
2022-12-01T15:17:31.589Z,46.50
2022-12-01T15:19:58.198Z,50.50
2022-12-01T15:22:28.838Z,49.00
2022-12-01T15:25:04.998Z,42.00
2022-12-01T15:27:32.638Z,47.50
2022-12-01T15:30:03.555Z,38.20
2022-12-01T15:32:31.217Z,44.00
2022-12-01T15:35:01.993Z,59.20
2022-12-01T15:37:30.651Z,56.00
2022-12-01T15:43:01.881Z,94.50
2022-12-01T15:45:28.514Z,60.25
2022-12-01T15:47:55.862Z,102.80
2022-12-01T15:50:46.250Z,54.00
2022-12-01T15:53:27.586Z,75.25
2022-12-01T15:55:58.729Z,52.00
2022-12-01T15:58:31.040Z,53.00
2022-12-01T16:01:10.221Z,51.00
2022-12-01T16:03:56.945Z,58.00
2022-12-01T16:06:26.741Z,70.75
2022-12-01T16:08:59.418Z,50.00
2022-12-01T16:11:26.620Z,51.00
2022-12-01T16:14:08.156Z,56.40
2022-12-01T16:16:34.641Z,66.50
2022-12-01T16:19:02.142Z,65.25
2022-12-01T16:21:30.831Z,48.25
2022-12-01T16:23:58.825Z,51.00
2022-12-01T16:26:25.260Z,64.40
2022-12-01T16:28:51.675Z,68.00
2022-12-01T16:31:19.204Z,46.60
2022-12-01T16:33:45.980Z,54.50
2022-12-01T16:36:14.302Z,42.60
2022-12-01T16:38:40.772Z,52.00
2022-12-01T16:41:17.777Z,45.00
2022-12-01T16:43:59.421Z,46.00
2022-12-01T16:46:31.029Z,47.80
2022-12-01T16:48:57.495Z,58.00
2022-12-01T16:51:29.934Z,61.00
2022-12-01T16:54:03.940Z,76.50
2022-12-01T16:56:30.343Z,53.75
2022-12-01T16:58:56.779Z,46.50
2022-12-01T17:01:23.307Z,48.75
2022-12-01T17:03:49.760Z,44.75
2022-12-01T17:06:17.585Z,48.00
2022-12-01T17:08:44.152Z,42.25
2022-12-01T17:11:10.660Z,41.60
2022-12-01T17:13:38.462Z,41.50
2022-12-01T17:16:06.599Z,35.20
2022-12-01T17:18:35.013Z,46.00
2022-12-01T17:21:03.511Z,45.60
2022-12-01T17:23:30.050Z,51.75
2022-12-01T17:25:56.587Z,44.20
2022-12-01T17:28:23.076Z,45.00
2022-12-01T17:30:49.689Z,53.00
2022-12-01T17:33:16.180Z,140.20
2022-12-01T17:35:42.709Z,89.25
2022-12-01T17:38:09.124Z,108.40
2022-12-01T17:40:35.540Z,53.25
2022-12-01T17:43:02.088Z,58.50
2022-12-01T17:45:28.652Z,52.20
2022-12-01T17:47:55.387Z,56.20
2022-12-01T17:50:21.828Z,48.20
2022-12-01T17:52:48.257Z,51.25
2022-12-01T17:55:14.818Z,51.20
2022-12-01T17:57:41.383Z,51.00
2022-12-01T18:00:08.164Z,65.40
2022-12-01T18:02:34.596Z,55.00
2022-12-01T18:05:01.143Z,49.00
2022-12-01T18:07:27.740Z,41.60
2022-12-01T18:09:54.284Z,42.00
2022-12-01T18:12:20.712Z,44.00
2022-12-01T18:14:47.414Z,36.75
2022-12-01T18:17:14.052Z,38.00
2022-12-01T18:19:40.544Z,38.00
2022-12-01T18:22:06.988Z,35.50
2022-12-01T18:24:33.592Z,44.00
2022-12-01T18:27:00.085Z,38.40
2022-12-01T18:29:28.619Z,35.00
2022-12-01T18:31:55.965Z,36.00
2022-12-01T18:34:22.441Z,37.40
2022-12-01T18:36:48.977Z,39.25
2022-12-01T18:39:15.681Z,41.75
2022-12-01T18:41:42.218Z,39.00
2022-12-01T18:44:08.840Z,40.80
2022-12-01T18:46:35.366Z,35.25
2022-12-01T18:49:02.993Z,41.75
2022-12-01T18:51:30.189Z,35.40
2022-12-01T18:53:57.575Z,42.75
2022-12-01T18:56:24.204Z,36.20
2022-12-01T18:59:00.953Z,42.00
2022-12-01T19:01:32.287Z,97.00
2022-12-01T19:03:59.404Z,52.25
2022-12-01T19:06:26.428Z,50.75
2022-12-01T19:08:53.476Z,59.00
2022-12-01T19:11:20.141Z,48.75
2022-12-01T19:13:46.684Z,43.20
2022-12-01T19:16:14.940Z,99.25
2022-12-01T19:18:41.771Z,52.50
2022-12-01T19:21:09.390Z,47.00
2022-12-01T19:23:35.863Z,46.00
2022-12-01T19:26:05.055Z,50.25
2022-12-01T19:28:32.366Z,60.00
2022-12-01T19:30:58.958Z,59.75
2022-12-01T19:33:27.078Z,55.00
2022-12-01T19:35:53.522Z,47.75
2022-12-01T19:38:19.948Z,46.00
2022-12-01T19:40:46.346Z,44.75
2022-12-01T19:43:12.777Z,68.20
2022-12-01T19:45:39.734Z,62.25
2022-12-01T19:48:06.725Z,54.00
2022-12-01T19:50:36.686Z,45.40
2022-12-01T19:53:03.155Z,43.75
2022-12-01T19:55:30.002Z,41.75
2022-12-01T19:57:56.437Z,41.25
2022-12-01T20:00:22.962Z,37.00
2022-12-01T20:02:49.445Z,33.40
2022-12-01T20:05:16.036Z,38.40
2022-12-01T20:07:42.517Z,41.80
2022-12-01T20:10:10.893Z,54.00
2022-12-01T20:12:37.863Z,53.00
2022-12-01T20:15:10.745Z,85.25
2022-12-01T20:17:37.697Z,96.50
2022-12-01T20:20:05.100Z,100.80
2022-12-01T20:22:35.473Z,54.75
2022-12-01T20:25:02.099Z,47.00
2022-12-01T20:27:28.769Z,48.00
2022-12-01T20:29:55.388Z,76.80
2022-12-01T20:32:23.825Z,54.00
2022-12-01T20:34:50.742Z,73.75
2022-12-01T20:37:17.426Z,73.25
2022-12-01T20:39:43.821Z,57.00
2022-12-01T20:42:10.446Z,46.00
2022-12-01T20:44:36.909Z,49.75
2022-12-01T20:47:03.540Z,39.00
2022-12-01T20:49:29.985Z,39.75
2022-12-01T20:51:56.463Z,39.25
2022-12-01T20:54:30.550Z,43.60
2022-12-01T20:56:57.454Z,41.75
2022-12-01T20:59:23.963Z,42.00
2022-12-01T21:01:50.510Z,42.00
2022-12-01T21:04:17.306Z,48.50
2022-12-01T21:06:43.738Z,46.25
2022-12-01T21:09:10.664Z,49.25
2022-12-01T21:12:00.917Z,43.75
2022-12-01T21:14:30.125Z,44.67
2022-12-01T21:16:59.192Z,46.25
2022-12-01T21:19:40.101Z,47.75
2022-12-01T21:22:13.336Z,48.75
2022-12-01T21:24:43.736Z,47.75
2022-12-01T21:27:14.793Z,52.25
2022-12-01T21:29:43.754Z,52.50
2022-12-01T21:32:13.249Z,53.25
2022-12-01T21:34:39.690Z,49.20
2022-12-01T21:37:10.481Z,56.25
2022-12-01T21:39:38.368Z,59.50
2022-12-01T21:42:14.985Z,53.50
2022-12-01T21:44:41.420Z,53.75
2022-12-01T21:47:16.335Z,73.25
2022-12-01T21:49:44.543Z,93.00
2022-12-01T21:52:18.956Z,61.50
2022-12-01T21:54:45.896Z,62.00
2022-12-01T21:57:24.370Z,49.75
2022-12-01T21:59:51.554Z,43.50
2022-12-01T22:02:40.256Z,37.50
2022-12-01T22:05:20.994Z,41.50
2022-12-01T22:07:47.558Z,37.80
2022-12-01T22:10:32.627Z,42.00
2022-12-01T22:12:59.048Z,37.00
2022-12-01T22:15:36.303Z,38.80
2022-12-01T22:18:10.809Z,39.00
2022-12-01T22:20:38.180Z,40.75
2022-12-01T22:23:09.462Z,44.20
2022-12-01T22:25:35.882Z,44.50
2022-12-01T22:28:02.978Z,48.00
2022-12-01T22:30:29.407Z,45.40
2022-12-01T22:33:00.332Z,44.80
2022-12-01T22:35:26.781Z,40.00
2022-12-01T22:37:55.174Z,44.50
2022-12-01T22:40:42.529Z,44.40
2022-12-01T22:43:18.134Z,43.50
2022-12-01T22:45:59.751Z,43.00
2022-12-01T22:48:38.179Z,39.80
2022-12-01T22:51:18.330Z,42.00
2022-12-01T22:53:45.800Z,36.25
2022-12-01T22:56:34.030Z,40.75
2022-12-01T22:59:00.822Z,45.00
2022-12-01T23:01:29.146Z,53.00
2022-12-01T23:04:13.346Z,57.00
2022-12-01T23:07:00.445Z,91.00
2022-12-01T23:09:45.069Z,57.00
2022-12-01T23:12:11.456Z,50.00
2022-12-01T23:14:48.567Z,46.40
2022-12-01T23:17:29.008Z,39.40
2022-12-01T23:20:02.443Z,40.00
2022-12-01T23:22:28.872Z,39.50
2022-12-01T23:24:55.301Z,42.75
2022-12-01T23:27:21.709Z,36.80
2022-12-01T23:29:48.204Z,39.00
2022-12-01T23:32:14.608Z,39.50
2022-12-01T23:34:41.100Z,37.60
2022-12-01T23:37:20.391Z,36.00
2022-12-01T23:39:46.979Z,33.00
2022-12-01T23:42:13.386Z,38.60
2022-12-01T23:44:41.136Z,48.00
2022-12-01T23:47:19.234Z,44.60
2022-12-01T23:49:46.464Z,37.20
2022-12-01T23:52:16.391Z,40.60
2022-12-01T23:54:42.840Z,40.00
2022-12-01T23:57:16.848Z,34.00
2022-12-01T23:59:44.158Z,40.00
